Latest Weather Observations for Dunalley

IDT60801

Issued at 11:31 pm EST Thursday 30 June 2016 (issued every 30 minutes, with the page automatically refreshed every 10 minutes)

About weather observations | Map of weather stations | Latest weather observations for TAS | Other Formats
Station Details ID: 094254 Name: DUNALLEY (STROUD POINT) Lat: -42.90 Lon: 147.79 Height: 12.43 m
Data from the previous 72 hours. | See also: Recent months at Dunalley
Date/Time
EST
Temp
°C
App
Temp
°C
Dew
Point
°C
Rel
Hum
%
Delta-T
°C
Wind Press
QNH
hPa
Press
MSL
hPa
Rain since
9am
mm
Dir  Spd
km/h
Gust
km/h
Spd
kts
Gust
kts
30/11:30pm 7.6 5.9 5.7 88 0.9 N 4 6 2 3 1005.1 1005.1 0.0
30/11:00pm 8.9 8.1 6.5 85 1.1 CALM 0 0 0 0 1004.8 1004.8 0.0
30/10:30pm 9.5 8.7 6.6 82 1.4 CALM 0 2 0 1 1004.5 1004.5 0.0
30/10:00pm 9.7 8.6 6.8 82 1.4 N 2 4 1 2 1004.2 1004.2 0.0
30/09:30pm 10.1 8.9 6.6 79 1.6 N 2 6 1 3 1003.9 1003.9 0.0
30/09:00pm 10.0 7.5 6.5 79 1.6 N 9 11 5 6 1003.8 1003.8 0.0
30/08:30pm 10.6 8.1 6.6 76 1.9 N 9 13 5 7 1003.5 1003.5 0.0
30/08:00pm 10.7 8.2 6.6 76 1.9 N 9 15 5 8 1003.2 1003.2 0.0
30/07:30pm 10.9 9.3 6.5 74 2.1 N 4 7 2 4 1003.2 1003.2 0.0
30/07:00pm 11.0 8.8 6.2 72 2.3 N 7 11 4 6 1003.1 1003.1 0.0
30/06:30pm 11.0 6.9 6.0 71 2.3 N 17 22 9 12 1002.7 1002.7 0.0
30/06:00pm 10.9 6.8 6.1 72 2.2 NNE 17 24 9 13 1002.4 1002.4 0.0
30/05:30pm 11.1 6.0 5.8 70 2.5 NNE 22 33 12 18 1002.3 1002.3 0.0
30/05:00pm 11.0 5.8 5.7 70 2.5 N 22 32 12 17 1001.8 1001.8 0.0
30/04:30pm 11.2 6.4 5.5 68 2.6 N 20 30 11 16 1001.7 1001.7 0.0
30/04:00pm 11.5 5.6 5.6 67 2.7 N 26 41 14 22 1001.5 1001.5 0.0
30/03:30pm 11.6 5.7 5.7 67 2.7 NNE 26 39 14 21 1001.2 1001.2 0.0
30/03:00pm 11.6 5.3 5.7 67 2.8 NNE 28 39 15 21 1001.4 1001.4 0.0
30/02:30pm 11.8 4.6 5.9 67 2.8 NNE 33 48 18 26 1001.3 1001.3 0.0
30/02:05pm 11.9 5.6 5.8 66 2.8 N 28 48 15 26 1001.5 1001.5 0.0
30/02:00pm 11.9 6.8 5.8 66 2.9 N 22 39 12 21 1001.7 1001.7 0.0
30/01:30pm 11.9 4.6 5.5 65 3.0 N 33 54 18 29 1002.0 1002.0 0.0
30/01:13pm 12.0 4.4 5.6 65 3.0 NNE 35 54 19 29 1002.0 1002.0 0.0
30/01:00pm 12.1 5.4 5.5 64 3.1 NNE 30 41 16 22 1002.4 1002.4 0.0
30/12:30pm 11.7 5.0 5.6 66 2.8 NNE 30 54 16 29 1003.0 1003.0 0.0
30/12:00pm 11.7 3.6 5.3 65 3.0 NNE 37 61 20 33 1003.5 1003.5 0.0
30/11:35am 11.9 4.1 4.9 62 3.2 N 35 54 19 29 1004.1 1004.1 0.0
30/11:30am 11.8 4.4 5.0 63 3.1 N 33 48 18 26 1004.3 1004.3 0.0
30/11:00am 12.1 4.9 4.8 61 3.4 N 32 50 17 27 1005.0 1005.0 0.0
30/10:45am 12.2 4.4 4.9 61 3.3 NNE 35 59 19 32 1005.1 1005.1 0.0
30/10:30am 12.2 5.0 4.9 61 3.3 N 32 48 17 26 1005.4 1005.4 0.0
30/10:20am 12.3 4.9 4.8 60 3.4 N 33 52 18 28 1005.6 1005.6 0.0
30/10:00am 12.1 4.8 4.3 59 3.5 N 32 46 17 25 1005.5 1005.5 0.0
30/09:34am 12.1 4.7 4.1 58 3.6 NNE 32 65 17 35 1005.7 1005.7 0.0
30/09:30am 12.2 4.6 3.7 56 3.8 N 33 48 18 26 1005.8 1005.8 0.0
30/09:17am 11.8 5.1 3.8 58 3.6 NNE 28 46 15 25 1006.1 1006.1 0.0
30/09:00am 11.8 5.5 3.6 57 3.7 NNE 26 41 14 22 1006.3 1006.3 0.0
30/08:30am 11.4 5.1 3.7 59 3.4 NNE 26 46 14 25 1006.5 1006.5 0.0
30/08:00am 11.4 4.0 3.9 60 3.4 N 32 50 17 27 1006.9 1006.9 0.0
30/07:48am 11.4 4.4 4.2 61 3.2 N 30 48 16 26 1007.0 1007.0 0.0
30/07:30am 11.3 4.8 4.5 63 3.1 N 28 44 15 24 1007.2 1007.2 0.0
30/07:00am 11.1 4.6 4.8 65 2.9 N 28 46 15 25 1007.7 1007.7 0.0
30/06:44am 11.1 3.8 4.6 64 2.9 N 32 52 17 28 1007.4 1007.4 0.0
30/06:30am 11.1 3.8 4.3 63 3.0 N 32 48 17 26 1007.9 1007.9 0.0
30/06:00am 11.3 5.4 3.8 60 3.3 N 24 37 13 20 1008.4 1008.4 0.0
30/05:30am 10.8 6.6 4.0 63 3.0 N 15 26 8 14 1008.5 1008.5 0.0
30/05:00am 10.8 5.4 4.3 64 2.9 NNE 22 37 12 20 1008.9 1008.9 0.0
30/04:30am 10.8 4.7 4.7 66 2.8 NNE 26 33 14 18 1008.9 1008.9 0.0
30/04:00am 10.7 5.1 5.3 69 2.5 NE 24 32 13 17 1009.2 1009.2 0.0
30/03:30am 11.0 5.8 5.5 69 2.5 NNE 22 28 12 15 1010.1 1010.1 0.0
30/03:00am 11.4 6.2 5.5 67 2.7 NNE 22 32 12 17 1010.7 1010.7 0.0
30/02:37am 11.5 5.2 5.6 67 2.7 NNE 28 46 15 25 1011.1 1011.1 0.0
30/02:30am 11.7 5.4 5.6 66 2.8 NNE 28 43 15 23 1011.2 1011.2 0.0
30/02:00am 11.5 6.4 5.8 68 2.7 NNE 22 33 12 18 1011.7 1011.7 0.0
30/01:30am 11.5 6.3 5.6 67 2.7 NNE 22 30 12 16 1011.9 1011.9 0.0
30/01:00am 11.5 5.9 5.4 66 2.8 N 24 33 13 18 1012.6 1012.7 0.0
30/12:30am 11.6 6.4 5.5 66 2.8 NNW 22 32 12 17 1013.0 1013.1 0.0
30/12:00am 10.6 6.0 5.4 70 2.4 NNW 19 24 10 13 1013.6 1013.7 0.0
 
Date/Time
EST
Temp
°C
App
Temp
°C
Dew
Point
°C
Rel
Hum
%
Delta-T
°C
Wind Press
QNH
hPa
Press
MSL
hPa
Rain since
9am
mm
Dir  Spd
km/h
Gust
km/h
Spd
kts
Gust
kts
29/11:30pm 10.1 6.7 5.9 75 1.9 NW 13 17 7 9 1014.3 1014.4 0.0
29/11:00pm 10.5 8.5 6.1 74 2.0 NW 6 11 3 6 1014.7 1014.8 0.0
29/10:30pm 10.9 8.3 5.9 71 2.3 NW 9 17 5 9 1015.2 1015.3 0.0
29/10:00pm 11.0 8.7 5.7 70 2.4 NW 7 9 4 5 1015.5 1015.6 0.0
29/09:30pm 10.6 7.9 5.4 70 2.4 NW 9 13 5 7 1015.7 1015.8 0.0
29/09:00pm 10.8 7.5 6.4 74 2.1 NW 13 19 7 10 1015.9 1016.0 0.0
29/08:30pm 10.7 7.7 6.1 73 2.1 NW 11 15 6 8 1016.3 1016.4 0.0
29/08:00pm 10.7 7.3 5.7 71 2.3 NW 13 20 7 11 1016.6 1016.7 0.0
29/07:30pm 10.2 8.3 6.9 80 1.6 WNW 6 9 3 5 1016.9 1017.0 0.0
29/07:00pm 10.1 7.4 7.5 84 1.2 WNW 11 15 6 8 1017.0 1017.1 0.0
29/06:30pm 10.6 8.9 7.5 81 1.5 WNW 6 7 3 4 1017.0 1017.1 0.0
29/06:00pm 9.7 7.7 7.1 84 1.2 WNW 7 9 4 5 1017.2 1017.3 0.0
29/05:30pm 11.6 9.7 6.9 73 2.2 WNW 6 6 3 3 1017.3 1017.4 0.0
29/05:00pm 12.4 10.5 6.9 69 2.6 WNW 6 7 3 4 1017.4 1017.5 0.0
29/04:30pm 13.3 9.7 6.9 65 3.1 WNW 15 20 8 11 1017.6 1017.7 0.0
29/04:00pm 13.9 10.7 7.0 63 3.3 WNW 13 22 7 12 1017.7 1017.8 0.0
29/03:30pm 14.0 11.3 7.5 65 3.2 NW 11 17 6 9 1017.8 1017.9 0.0
29/03:00pm 14.5 11.4 7.3 62 3.5 WNW 13 20 7 11 1017.7 1017.8 0.0
29/02:30pm 15.1 11.8 7.9 62 3.6 WNW 15 22 8 12 1017.6 1017.7 0.0
29/02:00pm 14.8 12.1 7.4 61 3.6 WNW 11 17 6 9 1017.8 1017.9 0.0
29/01:30pm 14.1 10.6 7.2 63 3.4 WNW 15 20 8 11 1018.1 1018.2 0.0
29/01:00pm 14.0 11.7 7.3 64 3.3 NW 9 15 5 8 1018.5 1018.6 0.0
29/12:30pm 14.2 11.0 7.0 62 3.5 NW 13 20 7 11 1018.6 1018.7 0.0
29/12:00pm 14.4 10.2 7.5 63 3.4 NW 19 26 10 14 1018.9 1019.0 0.0
29/11:30am 14.4 11.4 7.5 63 3.4 NW 13 20 7 11 1019.4 1019.5 0.0
29/11:00am 14.0 11.3 7.3 64 3.3 WNW 11 20 6 11 1019.6 1019.7 0.0
29/10:30am 12.9 9.1 7.4 69 2.7 NW 17 24 9 13 1019.7 1019.8 0.0
29/10:00am 12.8 9.3 7.0 68 2.8 NNW 15 24 8 13 1019.5 1019.6 0.0
29/09:30am 12.0 7.7 6.9 71 2.4 NW 19 24 10 13 1019.6 1019.7 0.0
29/09:00am 11.5 8.2 6.4 71 2.4 NNW 13 22 7 12 1019.3 1019.4 0.4
29/08:30am 11.4 7.8 6.7 73 2.2 NW 15 22 8 12 1019.2 1019.3 0.4
29/08:00am 11.4 8.5 6.7 73 2.2 NNW 11 19 6 10 1019.0 1019.1 0.2
29/07:30am 11.1 8.7 6.8 75 2.0 NNW 9 15 5 8 1018.5 1018.6 0.2
29/07:00am 11.1 7.2 7.2 77 1.9 WSW 17 26 9 14 1018.1 1018.2 0.2
29/06:30am 10.0 8.4 7.8 86 1.1 SW 6 9 3 5 1018.1 1018.2 0.2
29/06:00am 9.9 8.6 7.7 86 1.1 SW 4 7 2 4 1017.7 1017.8 0.2
29/05:30am 10.1 7.6 8.0 87 1.0 SW 11 15 6 8 1017.1 1017.2 0.0
29/05:00am 10.2 7.7 8.1 87 1.0 SW 11 19 6 10 1017.2 1017.3 0.0
29/04:30am 10.2 7.4 8.6 90 0.8 SSW 13 17 7 9 1017.2 1017.3 0.0
29/04:00am 10.9 6.5 7.6 80 1.6 WSW 20 26 11 14 1016.9 1017.0 0.0
29/03:30am 12.4 8.6 5.8 64 3.1 W 15 20 8 11 1016.3 1016.4 0.0
29/03:00am 13.0 7.7 5.2 59 3.6 NW 22 33 12 18 1015.8 1015.9 0.0
29/02:30am 13.1 7.8 5.0 58 3.7 NW 22 33 12 18 1015.6 1015.7 0.0
29/02:00am 13.0 7.7 4.9 58 3.7 WNW 22 30 12 16 1015.4 1015.5 0.0
29/01:30am 13.0 8.1 4.9 58 3.7 NW 20 35 11 19 1015.3 1015.4 0.0
29/01:00am 12.8 6.4 5.0 59 3.6 WNW 28 37 15 20 1015.0 1015.1 0.0
29/12:30am 12.6 5.8 5.3 61 3.4 WNW 30 46 16 25 1014.9 1015.0 0.0
29/12:00am 12.9 5.2 5.3 60 3.5 NW 35 46 19 25 1014.6 1014.7 0.0
 
Date/Time
EST
Temp
°C
App
Temp
°C
Dew
Point
°C
Rel
Hum
%
Delta-T
°C
Wind Press
QNH
hPa
Press
MSL
hPa
Rain since
9am
mm
Dir  Spd
km/h
Gust
km/h
Spd
kts
Gust
kts
28/11:30pm 12.9 5.9 5.8 62 3.3 WNW 32 44 17 24 1014.8 1014.9 0.0
28/11:00pm 13.0 7.8 5.4 60 3.5 NW 22 37 12 20 1015.0 1015.1 0.0
28/10:30pm 12.9 8.4 6.0 63 3.3 NW 19 30 10 16 1015.0 1015.1 0.0
28/10:00pm 13.0 8.9 6.4 64 3.1 NW 17 26 9 14 1015.1 1015.2 0.0
28/09:30pm 13.4 9.7 6.3 62 3.4 NW 15 22 8 12 1015.2 1015.3 0.0
28/09:00pm 13.3 9.2 6.4 63 3.3 NW 17 24 9 13 1015.1 1015.2 0.0
28/08:30pm 13.5 9.8 6.4 62 3.4 NW 15 24 8 13 1015.0 1015.1 0.0
28/08:00pm 13.5 10.7 6.8 64 3.2 NW 11 19 6 10 1015.0 1015.1 0.0
28/07:30pm 13.4 8.5 7.0 65 3.1 NW 22 30 12 16 1014.8 1014.9 0.0
28/07:00pm 13.3 9.3 6.6 64 3.2 WNW 17 24 9 13 1014.5 1014.6 0.0
28/06:30pm 13.6 9.6 6.7 63 3.3 NW 17 22 9 12 1014.4 1014.5 0.0
28/06:00pm 13.7 9.3 6.6 62 3.4 NW 19 26 10 14 1014.3 1014.4 0.0
28/05:30pm 13.9 8.5 6.5 61 3.6 WNW 24 32 13 17 1014.0 1014.1 0.0
28/05:00pm 14.1 8.3 6.2 59 3.8 WNW 26 35 14 19 1013.7 1013.8 0.0
28/04:30pm 14.5 9.0 6.1 57 4.0 WNW 24 37 13 20 1013.4 1013.5 0.0
28/04:00pm 14.9 9.9 6.5 57 4.1 WNW 22 33 12 18 1013.4 1013.5 0.0
28/03:30pm 14.6 10.3 6.9 60 3.8 WNW 19 33 10 18 1013.2 1013.3 0.0
28/03:00pm 15.4 11.9 7.2 58 4.0 WNW 15 20 8 11 1013.2 1013.3 0.0
28/02:30pm 15.2 10.7 7.0 58 4.0 WNW 20 30 11 16 1013.1 1013.2 0.0
28/02:00pm 15.6 10.9 7.9 60 3.9 WNW 22 33 12 18 1013.0 1013.1 0.0
28/01:30pm 15.2 11.1 7.7 61 3.7 WNW 19 30 10 16 1012.9 1013.0 0.0
28/01:00pm 14.0 9.3 7.8 66 3.1 WNW 22 32 12 17 1012.7 1012.8 0.0
28/12:30pm 13.8 9.4 7.6 66 3.0 WNW 20 33 11 18 1012.8 1012.9 0.0
28/12:00pm 13.4 9.2 7.6 68 2.8 W 19 28 10 15 1012.9 1013.0 0.0
28/11:30am 13.8 8.3 7.6 66 3.0 WNW 26 37 14 20 1013.0 1013.1 0.0
28/11:00am 13.8 9.0 7.3 65 3.2 WNW 22 33 12 18 1013.1 1013.2 0.0
28/10:30am 13.7 10.5 7.0 64 3.3 WNW 13 20 7 11 1013.1 1013.2 0.0
28/10:00am 13.4 9.4 6.7 64 3.2 NW 17 28 9 15 1012.9 1013.0 0.0
28/09:30am 12.6 10.4 6.2 65 3.0 WNW 7 13 4 7 1013.0 1013.1 0.0
28/09:00am 12.4 8.3 6.0 65 3.0 NW 17 24 9 13 1012.5 1012.6 0.0
28/08:30am 12.2 7.6 5.8 65 3.0 NW 19 28 10 15 1012.5 1012.6 0.0
28/08:00am 12.0 7.7 5.4 64 3.1 NW 17 30 9 16 1012.1 1012.1 0.0
28/07:30am 11.7 7.4 5.3 65 2.9 NW 17 28 9 15 1011.9 1011.9 0.0
28/07:00am 11.8 7.5 5.4 65 3.0 NW 17 32 9 17 1011.7 1011.7 0.0
28/06:30am 12.0 7.4 5.4 64 3.1 NW 19 33 10 18 1011.5 1011.5 0.0
28/06:00am 11.7 6.8 5.3 65 3.0 NW 20 33 11 18 1011.2 1011.2 0.0
28/05:30am 11.3 5.2 5.0 65 2.9 NW 26 35 14 19 1010.7 1010.7 0.0
28/05:00am 11.6 5.2 5.0 64 3.0 WNW 28 35 15 19 1010.5 1010.5 0.0
28/04:30am 11.4 6.6 4.8 64 3.0 NW 19 28 10 15 1010.4 1010.4 0.0
28/04:00am 11.2 6.2 4.7 64 2.9 NW 20 32 11 17 1010.3 1010.3 0.0
28/03:30am 11.0 6.6 4.5 64 2.9 NW 17 30 9 16 1010.8 1010.8 0.0
28/03:00am 11.0 6.6 4.5 64 2.9 NW 17 26 9 14 1010.9 1010.9 0.0
28/02:30am 11.2 5.7 4.2 62 3.1 NW 22 32 12 17 1011.0 1011.0 0.0
28/02:00am 10.9 5.8 4.1 63 3.0 NW 20 30 11 16 1010.7 1010.7 0.0
28/01:30am 10.7 4.8 4.0 63 3.0 NW 24 33 13 18 1010.5 1010.5 0.0
28/01:00am 10.3 6.4 3.3 62 3.0 NNW 13 26 7 14 1010.6 1010.6 0.0
28/12:30am 9.6 6.0 2.9 63 2.9 N 11 19 6 10 1010.9 1010.9 0.0
28/12:00am 9.4 5.4 2.7 63 2.9 N 13 20 7 11 1011.1 1011.1 0.0

Other Formats:

Comma delimited format used in spreadsheet applications
http://www.bom.gov.au/fwo/IDT60801/IDT60801.94951.axf

JavaScript Object Notation format (JSON) in row-major order
http://www.bom.gov.au/fwo/IDT60801/IDT60801.94951.json